sensor_id;sensor_type;location;lat;lon;timestamp;temperature;humidity
15844;DHT22;50807;52.436;13.346;2023-02-08T00:00:29;4.00;61.90
15844;DHT22;50807;52.436;13.346;2023-02-08T00:01:04;4.00;62.00
15844;DHT22;50807;52.436;13.346;2023-02-08T00:01:36;4.00;62.00
15844;DHT22;50807;52.436;13.346;2023-02-08T00:02:08;4.00;62.10
15844;DHT22;50807;52.436;13.346;2023-02-08T00:02:39;4.00;62.10
15844;DHT22;50807;52.436;13.346;2023-02-08T00:03:10;4.00;62.10
15844;DHT22;50807;52.436;13.346;2023-02-08T00:03:41;4.00;62.10
15844;DHT22;50807;52.436;13.346;2023-02-08T00:04:13;4.00;62.10
15844;DHT22;50807;52.436;13.346;2023-02-08T00:04:43;4.00;62.10
15844;DHT22;50807;52.436;13.346;2023-02-08T00:05:14;4.00;62.10
15844;DHT22;50807;52.436;13.346;2023-02-08T00:05:46;4.00;62.20
15844;DHT22;50807;52.436;13.346;2023-02-08T00:06:18;4.00;62.10
15844;DHT22;50807;52.436;13.346;2023-02-08T00:06:48;4.00;62.20
15844;DHT22;50807;52.436;13.346;2023-02-08T00:07:20;4.00;62.30
15844;DHT22;50807;52.436;13.346;2023-02-08T00:07:51;4.00;62.30
15844;DHT22;50807;52.436;13.346;2023-02-08T00:08:22;4.00;62.30
15844;DHT22;50807;52.436;13.346;2023-02-08T00:08:53;4.00;62.30
15844;DHT22;50807;52.436;13.346;2023-02-08T00:09:24;4.00;62.40
15844;DHT22;50807;52.436;13.346;2023-02-08T00:09:55;3.90;62.30
15844;DHT22;50807;52.436;13.346;2023-02-08T00:10:27;3.90;62.40
15844;DHT22;50807;52.436;13.346;2023-02-08T00:10:58;3.90;62.40
15844;DHT22;50807;52.436;13.346;2023-02-08T00:11:29;3.90;62.40
15844;DHT22;50807;52.436;13.346;2023-02-08T00:12:00;3.90;62.40
15844;DHT22;50807;52.436;13.346;2023-02-08T00:12:33;3.90;62.50
15844;DHT22;50807;52.436;13.346;2023-02-08T00:13:04;3.90;62.50
15844;DHT22;50807;52.436;13.346;2023-02-08T00:13:36;3.90;62.50
15844;DHT22;50807;52.436;13.346;2023-02-08T00:14:07;3.90;62.50
15844;DHT22;50807;52.436;13.346;2023-02-08T00:14:38;3.90;62.50
15844;DHT22;50807;52.436;13.346;2023-02-08T00:15:10;3.90;62.50
15844;DHT22;50807;52.436;13.346;2023-02-08T00:15:41;3.90;62.50
15844;DHT22;50807;52.436;13.346;2023-02-08T00:16:14;3.90;62.60
15844;DHT22;50807;52.436;13.346;2023-02-08T00:16:47;3.90;62.60
15844;DHT22;50807;52.436;13.346;2023-02-08T00:17:18;3.90;62.60
15844;DHT22;50807;52.436;13.346;2023-02-08T00:17:49;3.90;62.60
15844;DHT22;50807;52.436;13.346;2023-02-08T00:18:21;3.90;62.60
15844;DHT22;50807;52.436;13.346;2023-02-08T00:18:52;3.90;62.60
15844;DHT22;50807;52.436;13.346;2023-02-08T00:19:22;3.90;62.70
15844;DHT22;50807;52.436;13.346;2023-02-08T00:19:54;3.90;62.70
15844;DHT22;50807;52.436;13.346;2023-02-08T00:20:25;3.80;63.30
15844;DHT22;50807;52.436;13.346;2023-02-08T00:20:56;3.80;62.70
15844;DHT22;50807;52.436;13.346;2023-02-08T00:21:28;3.80;62.80
15844;DHT22;50807;52.436;13.346;2023-02-08T00:21:59;3.80;62.80
15844;DHT22;50807;52.436;13.346;2023-02-08T00:22:30;3.80;62.70
15844;DHT22;50807;52.436;13.346;2023-02-08T00:23:02;3.80;62.80
15844;DHT22;50807;52.436;13.346;2023-02-08T00:23:32;3.80;62.80
15844;DHT22;50807;52.436;13.346;2023-02-08T00:24:03;3.80;62.80
15844;DHT22;50807;52.436;13.346;2023-02-08T00:24:35;3.80;62.80
15844;DHT22;50807;52.436;13.346;2023-02-08T00:25:07;3.80;62.90
15844;DHT22;50807;52.436;13.346;2023-02-08T00:25:39;3.80;63.00
15844;DHT22;50807;52.436;13.346;2023-02-08T00:26:11;3.80;63.00
15844;DHT22;50807;52.436;13.346;2023-02-08T00:26:42;3.80;63.00
15844;DHT22;50807;52.436;13.346;2023-02-08T00:27:13;3.80;63.00
15844;DHT22;50807;52.436;13.346;2023-02-08T00:27:46;3.80;63.00
15844;DHT22;50807;52.436;13.346;2023-02-08T00:28:18;3.80;63.00
15844;DHT22;50807;52.436;13.346;2023-02-08T00:28:49;3.80;63.10
15844;DHT22;50807;52.436;13.346;2023-02-08T00:29:21;3.80;63.00
15844;DHT22;50807;52.436;13.346;2023-02-08T00:29:51;3.70;63.00
15844;DHT22;50807;52.436;13.346;2023-02-08T00:30:22;3.70;63.10
15844;DHT22;50807;52.436;13.346;2023-02-08T00:30:54;3.70;63.00
15844;DHT22;50807;52.436;13.346;2023-02-08T00:31:25;3.70;63.10
15844;DHT22;50807;52.436;13.346;2023-02-08T00:31:56;3.70;63.10
15844;DHT22;50807;52.436;13.346;2023-02-08T00:32:27;3.70;63.10
15844;DHT22;50807;52.436;13.346;2023-02-08T00:32:58;3.70;63.20
15844;DHT22;50807;52.436;13.346;2023-02-08T00:33:30;3.70;63.20
15844;DHT22;50807;52.436;13.346;2023-02-08T00:34:02;3.70;63.20
15844;DHT22;50807;52.436;13.346;2023-02-08T00:34:32;3.70;63.20
15844;DHT22;50807;52.436;13.346;2023-02-08T00:35:04;3.70;63.20
15844;DHT22;50807;52.436;13.346;2023-02-08T00:35:37;3.70;63.30
15844;DHT22;50807;52.436;13.346;2023-02-08T00:36:10;3.70;63.20
15844;DHT22;50807;52.436;13.346;2023-02-08T00:36:41;3.70;63.40
15844;DHT22;50807;52.436;13.346;2023-02-08T00:37:13;3.70;63.20
15844;DHT22;50807;52.436;13.346;2023-02-08T00:37:44;3.70;63.40
15844;DHT22;50807;52.436;13.346;2023-02-08T00:38:14;3.70;63.40
15844;DHT22;50807;52.436;13.346;2023-02-08T00:38:46;3.70;63.40
15844;DHT22;50807;52.436;13.346;2023-02-08T00:39:17;3.70;63.40
15844;DHT22;50807;52.436;13.346;2023-02-08T00:39:50;3.70;63.40
15844;DHT22;50807;52.436;13.346;2023-02-08T00:40:22;3.70;63.40
15844;DHT22;50807;52.436;13.346;2023-02-08T00:40:53;3.70;63.40
15844;DHT22;50807;52.436;13.346;2023-02-08T00:41:24;3.70;63.50
15844;DHT22;50807;52.436;13.346;2023-02-08T00:41:55;3.60;63.40
15844;DHT22;50807;52.436;13.346;2023-02-08T00:42:27;3.70;63.50
15844;DHT22;50807;52.436;13.346;2023-02-08T00:42:59;3.60;63.50
15844;DHT22;50807;52.436;13.346;2023-02-08T00:43:30;3.70;63.50
15844;DHT22;50807;52.436;13.346;2023-02-08T00:44:02;3.60;63.60
15844;DHT22;50807;52.436;13.346;2023-02-08T00:44:33;3.60;63.60
15844;DHT22;50807;52.436;13.346;2023-02-08T00:45:04;3.60;63.60
15844;DHT22;50807;52.436;13.346;2023-02-08T00:45:36;3.60;63.60
15844;DHT22;50807;52.436;13.346;2023-02-08T00:46:07;3.60;63.60
15844;DHT22;50807;52.436;13.346;2023-02-08T00:46:38;3.60;63.70
15844;DHT22;50807;52.436;13.346;2023-02-08T00:47:10;3.60;64.40
15844;DHT22;50807;52.436;13.346;2023-02-08T00:47:41;3.60;63.70
15844;DHT22;50807;52.436;13.346;2023-02-08T00:48:12;3.60;63.70
15844;DHT22;50807;52.436;13.346;2023-02-08T00:48:43;3.60;63.70
15844;DHT22;50807;52.436;13.346;2023-02-08T00:49:14;3.60;63.70
15844;DHT22;50807;52.436;13.346;2023-02-08T00:49:45;3.60;63.70
15844;DHT22;50807;52.436;13.346;2023-02-08T00:50:17;3.60;63.80
15844;DHT22;50807;52.436;13.346;2023-02-08T00:50:56;3.60;63.80
15844;DHT22;50807;52.436;13.346;2023-02-08T00:51:28;3.60;63.90
15844;DHT22;50807;52.436;13.346;2023-02-08T00:52:00;3.60;63.80
15844;DHT22;50807;52.436;13.346;2023-02-08T00:52:31;3.60;63.70
15844;DHT22;50807;52.436;13.346;2023-02-08T00:53:02;3.60;63.80
15844;DHT22;50807;52.436;13.346;2023-02-08T00:53:35;3.60;63.80
15844;DHT22;50807;52.436;13.346;2023-02-08T00:54:09;3.60;63.80
15844;DHT22;50807;52.436;13.346;2023-02-08T00:54:42;3.60;63.80
15844;DHT22;50807;52.436;13.346;2023-02-08T00:55:14;3.60;63.80
15844;DHT22;50807;52.436;13.346;2023-02-08T00:55:49;3.60;63.80
15844;DHT22;50807;52.436;13.346;2023-02-08T00:56:20;3.60;63.90
15844;DHT22;50807;52.436;13.346;2023-02-08T00:56:52;3.60;64.00
15844;DHT22;50807;52.436;13.346;2023-02-08T00:57:23;3.60;63.90
15844;DHT22;50807;52.436;13.346;2023-02-08T00:57:54;3.60;63.90
15844;DHT22;50807;52.436;13.346;2023-02-08T00:58:27;3.60;63.90
15844;DHT22;50807;52.436;13.346;2023-02-08T00:58:58;3.60;64.00
15844;DHT22;50807;52.436;13.346;2023-02-08T00:59:29;3.60;63.90
15844;DHT22;50807;52.436;13.346;2023-02-08T01:00:01;3.50;64.00
15844;DHT22;50807;52.436;13.346;2023-02-08T01:00:32;3.50;64.00
15844;DHT22;50807;52.436;13.346;2023-02-08T01:01:04;3.50;64.00
15844;DHT22;50807;52.436;13.346;2023-02-08T01:01:37;3.50;64.10
15844;DHT22;50807;52.436;13.346;2023-02-08T01:02:09;3.50;64.00
15844;DHT22;50807;52.436;13.346;2023-02-08T01:02:40;3.50;64.00
15844;DHT22;50807;52.436;13.346;2023-02-08T01:03:11;3.50;64.00
15844;DHT22;50807;52.436;13.346;2023-02-08T01:03:42;3.50;64.00
15844;DHT22;50807;52.436;13.346;2023-02-08T01:04:14;3.50;64.10
15844;DHT22;50807;52.436;13.346;2023-02-08T01:04:45;3.50;64.10
15844;DHT22;50807;52.436;13.346;2023-02-08T01:05:16;3.50;64.20
15844;DHT22;50807;52.436;13.346;2023-02-08T01:05:47;3.50;64.20
15844;DHT22;50807;52.436;13.346;2023-02-08T01:06:19;3.50;64.20
15844;DHT22;50807;52.436;13.346;2023-02-08T01:06:50;3.50;64.20
15844;DHT22;50807;52.436;13.346;2023-02-08T01:07:21;3.50;64.30
15844;DHT22;50807;52.436;13.346;2023-02-08T01:07:53;3.50;64.20
15844;DHT22;50807;52.436;13.346;2023-02-08T01:08:23;3.50;64.30
15844;DHT22;50807;52.436;13.346;2023-02-08T01:08:54;3.50;64.40
15844;DHT22;50807;52.436;13.346;2023-02-08T01:09:26;3.40;64.40
15844;DHT22;50807;52.436;13.346;2023-02-08T01:09:57;3.40;64.40
15844;DHT22;50807;52.436;13.346;2023-02-08T01:10:29;3.50;64.40
15844;DHT22;50807;52.436;13.346;2023-02-08T01:11:05;3.40;64.50
15844;DHT22;50807;52.436;13.346;2023-02-08T01:11:37;3.40;65.20
15844;DHT22;50807;52.436;13.346;2023-02-08T01:12:08;3.40;64.40
15844;DHT22;50807;52.436;13.346;2023-02-08T01:12:39;3.40;64.50
15844;DHT22;50807;52.436;13.346;2023-02-08T01:13:10;3.40;64.50
15844;DHT22;50807;52.436;13.346;2023-02-08T01:13:43;3.40;64.50
15844;DHT22;50807;52.436;13.346;2023-02-08T01:14:15;3.40;64.60
15844;DHT22;50807;52.436;13.346;2023-02-08T01:14:46;3.40;64.60
15844;DHT22;50807;52.436;13.346;2023-02-08T01:15:17;3.40;64.50
15844;DHT22;50807;52.436;13.346;2023-02-08T01:15:48;3.40;64.60
15844;DHT22;50807;52.436;13.346;2023-02-08T01:16:22;3.40;64.60
15844;DHT22;50807;52.436;13.346;2023-02-08T01:16:55;3.40;64.60
15844;DHT22;50807;52.436;13.346;2023-02-08T01:17:27;3.40;64.60
15844;DHT22;50807;52.436;13.346;2023-02-08T01:17:57;3.40;64.60
15844;DHT22;50807;52.436;13.346;2023-02-08T01:18:28;3.40;64.50
15844;DHT22;50807;52.436;13.346;2023-02-08T01:19:02;3.40;64.60
15844;DHT22;50807;52.436;13.346;2023-02-08T01:19:33;3.40;64.60
15844;DHT22;50807;52.436;13.346;2023-02-08T01:20:05;3.40;64.60
15844;DHT22;50807;52.436;13.346;2023-02-08T01:20:37;3.40;64.60
15844;DHT22;50807;52.436;13.346;2023-02-08T01:21:10;3.40;64.60
15844;DHT22;50807;52.436;13.346;2023-02-08T01:21:43;3.40;64.70
15844;DHT22;50807;52.436;13.346;2023-02-08T01:22:15;3.40;64.70
15844;DHT22;50807;52.436;13.346;2023-02-08T01:22:46;3.40;64.70
15844;DHT22;50807;52.436;13.346;2023-02-08T01:23:16;3.40;64.70
15844;DHT22;50807;52.436;13.346;2023-02-08T01:23:49;3.40;64.80
15844;DHT22;50807;52.436;13.346;2023-02-08T01:24:20;3.40;64.90
15844;DHT22;50807;52.436;13.346;2023-02-08T01:24:52;3.40;64.80
15844;DHT22;50807;52.436;13.346;2023-02-08T01:25:23;3.40;64.80
15844;DHT22;50807;52.436;13.346;2023-02-08T01:25:54;3.40;64.80
15844;DHT22;50807;52.436;13.346;2023-02-08T01:26:25;3.40;64.80
15844;DHT22;50807;52.436;13.346;2023-02-08T01:26:57;3.40;64.90
15844;DHT22;50807;52.436;13.346;2023-02-08T01:27:28;3.40;64.70
15844;DHT22;50807;52.436;13.346;2023-02-08T01:27:58;3.40;64.80
15844;DHT22;50807;52.436;13.346;2023-02-08T01:28:30;3.40;64.80
15844;DHT22;50807;52.436;13.346;2023-02-08T01:29:03;3.40;64.90
15844;DHT22;50807;52.436;13.346;2023-02-08T01:29:34;3.40;64.90
15844;DHT22;50807;52.436;13.346;2023-02-08T01:30:07;3.40;64.80
15844;DHT22;50807;52.436;13.346;2023-02-08T01:30:38;3.40;64.90
15844;DHT22;50807;52.436;13.346;2023-02-08T01:31:11;3.40;64.90
15844;DHT22;50807;52.436;13.346;2023-02-08T01:31:45;3.30;64.90
15844;DHT22;50807;52.436;13.346;2023-02-08T01:32:16;3.30;65.00
15844;DHT22;50807;52.436;13.346;2023-02-08T01:32:46;3.30;65.00
15844;DHT22;50807;52.436;13.346;2023-02-08T01:33:18;3.30;64.90
15844;DHT22;50807;52.436;13.346;2023-02-08T01:33:49;3.30;64.90
15844;DHT22;50807;52.436;13.346;2023-02-08T01:34:20;3.30;65.00
15844;DHT22;50807;52.436;13.346;2023-02-08T01:34:52;3.30;65.00
15844;DHT22;50807;52.436;13.346;2023-02-08T01:35:22;3.30;65.00
15844;DHT22;50807;52.436;13.346;2023-02-08T01:35:53;3.30;65.00
15844;DHT22;50807;52.436;13.346;2023-02-08T01:36:26;3.30;65.10
15844;DHT22;50807;52.436;13.346;2023-02-08T01:36:58;3.30;65.20
15844;DHT22;50807;52.436;13.346;2023-02-08T01:37:29;3.30;65.00
15844;DHT22;50807;52.436;13.346;2023-02-08T01:38:01;3.30;65.10
15844;DHT22;50807;52.436;13.346;2023-02-08T01:38:32;3.30;65.10
15844;DHT22;50807;52.436;13.346;2023-02-08T01:39:04;3.30;65.10
15844;DHT22;50807;52.436;13.346;2023-02-08T01:39:37;3.30;65.20
15844;DHT22;50807;52.436;13.346;2023-02-08T01:40:09;3.30;65.10
15844;DHT22;50807;52.436;13.346;2023-02-08T01:40:40;3.30;65.20
15844;DHT22;50807;52.436;13.346;2023-02-08T01:41:15;3.30;65.10
15844;DHT22;50807;52.436;13.346;2023-02-08T01:41:48;3.30;65.30
15844;DHT22;50807;52.436;13.346;2023-02-08T01:42:19;3.30;65.20
15844;DHT22;50807;52.436;13.346;2023-02-08T01:42:50;3.30;65.20
15844;DHT22;50807;52.436;13.346;2023-02-08T01:43:24;3.30;65.20
15844;DHT22;50807;52.436;13.346;2023-02-08T01:45:27;3.30;65.30
15844;DHT22;50807;52.436;13.346;2023-02-08T01:46:00;3.30;65.20
15844;DHT22;50807;52.436;13.346;2023-02-08T01:46:33;3.30;65.00
15844;DHT22;50807;52.436;13.346;2023-02-08T01:47:05;3.30;65.00
15844;DHT22;50807;52.436;13.346;2023-02-08T01:47:36;3.30;65.00
15844;DHT22;50807;52.436;13.346;2023-02-08T01:48:12;3.30;65.00
15844;DHT22;50807;52.436;13.346;2023-02-08T01:48:46;3.30;65.00
15844;DHT22;50807;52.436;13.346;2023-02-08T01:49:22;3.30;65.20
15844;DHT22;50807;52.436;13.346;2023-02-08T01:49:56;3.30;65.20
15844;DHT22;50807;52.436;13.346;2023-02-08T01:50:30;3.20;65.20
15844;DHT22;50807;52.436;13.346;2023-02-08T01:51:08;3.20;65.20
15844;DHT22;50807;52.436;13.346;2023-02-08T01:51:50;3.20;65.30
15844;DHT22;50807;52.436;13.346;2023-02-08T01:52:25;3.20;65.30
15844;DHT22;50807;52.436;13.346;2023-02-08T01:52:58;3.20;65.40
15844;DHT22;50807;52.436;13.346;2023-02-08T01:53:31;3.20;65.20
15844;DHT22;50807;52.436;13.346;2023-02-08T01:54:07;3.20;65.30
15844;DHT22;50807;52.436;13.346;2023-02-08T01:54:43;3.20;65.30
15844;DHT22;50807;52.436;13.346;2023-02-08T01:55:21;3.20;65.40
15844;DHT22;50807;52.436;13.346;2023-02-08T01:55:58;3.20;65.40
15844;DHT22;50807;52.436;13.346;2023-02-08T01:56:34;3.20;65.40
15844;DHT22;50807;52.436;13.346;2023-02-08T01:57:08;3.20;65.40
15844;DHT22;50807;52.436;13.346;2023-02-08T01:57:40;3.20;65.40
15844;DHT22;50807;52.436;13.346;2023-02-08T01:58:12;3.20;65.40
15844;DHT22;50807;52.436;13.346;2023-02-08T01:58:48;3.20;65.50
15844;DHT22;50807;52.436;13.346;2023-02-08T01:59:25;3.20;65.60
15844;DHT22;50807;52.436;13.346;2023-02-08T02:00:06;3.20;65.50
15844;DHT22;50807;52.436;13.346;2023-02-08T02:00:43;3.20;65.70
15844;DHT22;50807;52.436;13.346;2023-02-08T02:01:15;3.10;65.50
15844;DHT22;50807;52.436;13.346;2023-02-08T02:01:48;3.20;65.60
15844;DHT22;50807;52.436;13.346;2023-02-08T02:02:24;3.10;65.60
15844;DHT22;50807;52.436;13.346;2023-02-08T02:02:57;3.10;65.60
15844;DHT22;50807;52.436;13.346;2023-02-08T02:03:29;3.10;65.60
15844;DHT22;50807;52.436;13.346;2023-02-08T02:04:02;3.10;65.70
15844;DHT22;50807;52.436;13.346;2023-02-08T02:04:35;3.10;65.70
15844;DHT22;50807;52.436;13.346;2023-02-08T02:05:06;3.10;65.60
15844;DHT22;50807;52.436;13.346;2023-02-08T02:05:41;3.10;65.80
15844;DHT22;50807;52.436;13.346;2023-02-08T02:06:16;3.10;65.80
15844;DHT22;50807;52.436;13.346;2023-02-08T02:06:54;3.00;65.80
15844;DHT22;50807;52.436;13.346;2023-02-08T02:07:29;3.10;65.80
15844;DHT22;50807;52.436;13.346;2023-02-08T02:08:00;3.10;65.90
15844;DHT22;50807;52.436;13.346;2023-02-08T02:08:32;3.10;65.80
15844;DHT22;50807;52.436;13.346;2023-02-08T02:09:08;3.10;65.80
15844;DHT22;50807;52.436;13.346;2023-02-08T02:09:45;3.10;65.90
15844;DHT22;50807;52.436;13.346;2023-02-08T02:10:25;3.00;65.90
15844;DHT22;50807;52.436;13.346;2023-02-08T02:10:58;3.00;65.90
15844;DHT22;50807;52.436;13.346;2023-02-08T02:11:29;3.00;65.80
15844;DHT22;50807;52.436;13.346;2023-02-08T02:12:01;3.00;65.90
15844;DHT22;50807;52.436;13.346;2023-02-08T02:12:32;3.00;65.80
15844;DHT22;50807;52.436;13.346;2023-02-08T02:13:09;3.00;65.90
15844;DHT22;50807;52.436;13.346;2023-02-08T02:13:43;3.00;66.00
15844;DHT22;50807;52.436;13.346;2023-02-08T02:14:14;3.00;66.00
15844;DHT22;50807;52.436;13.346;2023-02-08T02:14:47;3.00;66.00
15844;DHT22;50807;52.436;13.346;2023-02-08T02:15:18;3.00;66.30
15844;DHT22;50807;52.436;13.346;2023-02-08T02:15:50;3.00;65.90
15844;DHT22;50807;52.436;13.346;2023-02-08T02:16:22;3.00;66.10
15844;DHT22;50807;52.436;13.346;2023-02-08T02:16:53;3.00;66.10
15844;DHT22;50807;52.436;13.346;2023-02-08T02:17:24;2.90;66.00
15844;DHT22;50807;52.436;13.346;2023-02-08T02:17:56;2.90;66.00
15844;DHT22;50807;52.436;13.346;2023-02-08T02:18:29;2.90;66.00
15844;DHT22;50807;52.436;13.346;2023-02-08T02:19:03;2.90;66.20
15844;DHT22;50807;52.436;13.346;2023-02-08T02:19:56;2.90;66.20
15844;DHT22;50807;52.436;13.346;2023-02-08T02:20:43;2.90;66.20
15844;DHT22;50807;52.436;13.346;2023-02-08T02:21:50;2.90;66.30
15844;DHT22;50807;52.436;13.346;2023-02-08T02:23:18;2.90;66.20
15844;DHT22;50807;52.436;13.346;2023-02-08T02:24:22;3.00;66.10
15844;DHT22;50807;52.436;13.346;2023-02-08T02:26:40;3.00;65.70
15844;DHT22;50807;52.436;13.346;2023-02-08T02:27:50;3.00;65.60
15844;DHT22;50807;52.436;13.346;2023-02-08T02:30:25;3.00;65.20
15844;DHT22;50807;52.436;13.346;2023-02-08T02:32:25;3.00;65.10
15844;DHT22;50807;52.436;13.346;2023-02-08T02:34:25;2.90;64.90
15844;DHT22;50807;52.436;13.346;2023-02-08T02:35:05;2.90;64.90
15844;DHT22;50807;52.436;13.346;2023-02-08T02:35:44;2.90;64.90
15844;DHT22;50807;52.436;13.346;2023-02-08T02:36:27;2.80;64.80
15844;DHT22;50807;52.436;13.346;2023-02-08T02:37:11;2.80;64.90
15844;DHT22;50807;52.436;13.346;2023-02-08T02:38:08;2.70;64.90
15844;DHT22;50807;52.436;13.346;2023-02-08T02:38:51;2.70;65.10
15844;DHT22;50807;52.436;13.346;2023-02-08T02:39:36;2.70;65.20
15844;DHT22;50807;52.436;13.346;2023-02-08T02:40:19;2.70;65.20
15844;DHT22;50807;52.436;13.346;2023-02-08T02:41:02;2.60;65.30
15844;DHT22;50807;52.436;13.346;2023-02-08T02:41:42;2.60;65.30
15844;DHT22;50807;52.436;13.346;2023-02-08T02:42:51;2.60;65.40
15844;DHT22;50807;52.436;13.346;2023-02-08T02:43:53;2.60;65.60
15844;DHT22;50807;52.436;13.346;2023-02-08T02:44:33;2.60;65.60
15844;DHT22;50807;52.436;13.346;2023-02-08T02:45:14;2.60;65.60
15844;DHT22;50807;52.436;13.346;2023-02-08T02:45:57;2.60;65.70
15844;DHT22;50807;52.436;13.346;2023-02-08T02:46:39;2.60;65.70
15844;DHT22;50807;52.436;13.346;2023-02-08T02:47:22;2.50;65.70
15844;DHT22;50807;52.436;13.346;2023-02-08T02:48:01;2.50;65.80
15844;DHT22;50807;52.436;13.346;2023-02-08T02:48:41;2.50;65.80
15844;DHT22;50807;52.436;13.346;2023-02-08T02:49:22;2.50;65.90
15844;DHT22;50807;52.436;13.346;2023-02-08T02:50:01;2.50;65.90
15844;DHT22;50807;52.436;13.346;2023-02-08T02:50:42;2.50;66.00
15844;DHT22;50807;52.436;13.346;2023-02-08T02:51:18;2.50;66.00
15844;DHT22;50807;52.436;13.346;2023-02-08T02:51:57;2.50;66.00
15844;DHT22;50807;52.436;13.346;2023-02-08T02:52:36;2.50;66.10
15844;DHT22;50807;52.436;13.346;2023-02-08T02:53:16;2.50;66.10
15844;DHT22;50807;52.436;13.346;2023-02-08T02:53:54;2.50;66.20
15844;DHT22;50807;52.436;13.346;2023-02-08T02:54:32;2.40;66.10
15844;DHT22;50807;52.436;13.346;2023-02-08T02:55:10;2.40;66.20
15844;DHT22;50807;52.436;13.346;2023-02-08T02:55:50;2.40;66.20
15844;DHT22;50807;52.436;13.346;2023-02-08T02:56:29;2.40;66.20
15844;DHT22;50807;52.436;13.346;2023-02-08T02:57:07;2.40;66.30
15844;DHT22;50807;52.436;13.346;2023-02-08T02:57:41;2.40;66.30
15844;DHT22;50807;52.436;13.346;2023-02-08T02:58:19;2.40;66.30
15844;DHT22;50807;52.436;13.346;2023-02-08T02:58:55;2.40;66.40
15844;DHT22;50807;52.436;13.346;2023-02-08T02:59:31;2.40;66.40
15844;DHT22;50807;52.436;13.346;2023-02-08T03:00:06;2.30;66.40
15844;DHT22;50807;52.436;13.346;2023-02-08T03:00:39;2.30;66.40
15844;DHT22;50807;52.436;13.346;2023-02-08T03:01:10;2.30;66.40
15844;DHT22;50807;52.436;13.346;2023-02-08T03:01:44;2.30;66.50
15844;DHT22;50807;52.436;13.346;2023-02-08T03:02:17;2.30;66.60
15844;DHT22;50807;52.436;13.346;2023-02-08T03:02:48;2.30;66.60
15844;DHT22;50807;52.436;13.346;2023-02-08T03:03:22;2.30;66.70
15844;DHT22;50807;52.436;13.346;2023-02-08T03:03:55;2.30;66.70
15844;DHT22;50807;52.436;13.346;2023-02-08T03:04:52;2.20;66.70
15844;DHT22;50807;52.436;13.346;2023-02-08T03:05:24;2.20;66.90
15844;DHT22;50807;52.436;13.346;2023-02-08T03:06:03;2.30;67.00
15844;DHT22;50807;52.436;13.346;2023-02-08T03:06:41;2.20;66.90
15844;DHT22;50807;52.436;13.346;2023-02-08T03:07:47;2.20;66.90
15844;DHT22;50807;52.436;13.346;2023-02-08T03:08:54;2.20;67.00
15844;DHT22;50807;52.436;13.346;2023-02-08T03:09:51;2.30;67.10
15844;DHT22;50807;52.436;13.346;2023-02-08T03:11:02;2.30;67.00
15844;DHT22;50807;52.436;13.346;2023-02-08T03:11:45;2.30;66.90
15844;DHT22;50807;52.436;13.346;2023-02-08T03:12:35;2.30;66.80
15844;DHT22;50807;52.436;13.346;2023-02-08T03:13:21;2.30;66.60
15844;DHT22;50807;52.436;13.346;2023-02-08T03:14:24;2.30;66.60
15844;DHT22;50807;52.436;13.346;2023-02-08T03:15:10;2.30;66.80
15844;DHT22;50807;52.436;13.346;2023-02-08T03:15:56;2.30;66.70
15844;DHT22;50807;52.436;13.346;2023-02-08T03:16:46;2.30;66.70
15844;DHT22;50807;52.436;13.346;2023-02-08T03:17:45;2.30;66.80
15844;DHT22;50807;52.436;13.346;2023-02-08T03:18:32;2.30;66.60
15844;DHT22;50807;52.436;13.346;2023-02-08T03:19:13;2.30;66.70
15844;DHT22;50807;52.436;13.346;2023-02-08T03:19:54;2.30;66.70
15844;DHT22;50807;52.436;13.346;2023-02-08T03:20:37;2.30;66.70
15844;DHT22;50807;52.436;13.346;2023-02-08T03:21:16;2.30;67.50
15844;DHT22;50807;52.436;13.346;2023-02-08T03:21:54;2.30;66.80
15844;DHT22;50807;52.436;13.346;2023-02-08T03:22:33;2.30;66.90
15844;DHT22;50807;52.436;13.346;2023-02-08T03:23:18;2.30;66.90
15844;DHT22;50807;52.436;13.346;2023-02-08T03:23:58;2.30;67.00
15844;DHT22;50807;52.436;13.346;2023-02-08T03:24:41;2.30;67.00
15844;DHT22;50807;52.436;13.346;2023-02-08T03:25:23;2.20;67.10
15844;DHT22;50807;52.436;13.346;2023-02-08T03:26:01;2.30;67.20
15844;DHT22;50807;52.436;13.346;2023-02-08T03:26:41;2.20;67.10
15844;DHT22;50807;52.436;13.346;2023-02-08T03:27:26;2.20;67.10
15844;DHT22;50807;52.436;13.346;2023-02-08T03:28:04;2.20;67.20
15844;DHT22;50807;52.436;13.346;2023-02-08T03:28:48;2.20;67.10
15844;DHT22;50807;52.436;13.346;2023-02-08T03:29:38;2.20;67.30
15844;DHT22;50807;52.436;13.346;2023-02-08T03:30:16;2.20;67.30
15844;DHT22;50807;52.436;13.346;2023-02-08T03:30:57;2.20;67.30
15844;DHT22;50807;52.436;13.346;2023-02-08T03:31:40;2.20;67.30
15844;DHT22;50807;52.436;13.346;2023-02-08T03:32:18;2.20;67.30
15844;DHT22;50807;52.436;13.346;2023-02-08T03:32:58;2.20;67.30
15844;DHT22;50807;52.436;13.346;2023-02-08T03:33:35;2.20;67.30
15844;DHT22;50807;52.436;13.346;2023-02-08T03:34:12;2.20;67.30
15844;DHT22;50807;52.436;13.346;2023-02-08T03:34:50;2.20;67.40
15844;DHT22;50807;52.436;13.346;2023-02-08T03:35:30;2.20;67.50
15844;DHT22;50807;52.436;13.346;2023-02-08T03:36:07;2.20;67.50
15844;DHT22;50807;52.436;13.346;2023-02-08T03:36:51;2.20;67.60
15844;DHT22;50807;52.436;13.346;2023-02-08T03:37:27;2.20;67.60
15844;DHT22;50807;52.436;13.346;2023-02-08T03:38:04;2.20;67.50
15844;DHT22;50807;52.436;13.346;2023-02-08T03:38:42;2.20;67.60
15844;DHT22;50807;52.436;13.346;2023-02-08T03:39:18;2.20;67.60
15844;DHT22;50807;52.436;13.346;2023-02-08T03:39:57;2.20;67.60
15844;DHT22;50807;52.436;13.346;2023-02-08T03:40:36;2.20;67.60
15844;DHT22;50807;52.436;13.346;2023-02-08T03:41:11;2.20;67.70
15844;DHT22;50807;52.436;13.346;2023-02-08T03:41:46;2.20;67.70
15844;DHT22;50807;52.436;13.346;2023-02-08T03:42:24;2.20;67.70
15844;DHT22;50807;52.436;13.346;2023-02-08T03:43:02;2.20;68.40
15844;DHT22;50807;52.436;13.346;2023-02-08T03:43:41;2.20;67.70
15844;DHT22;50807;52.436;13.346;2023-02-08T03:44:20;2.20;67.80
15844;DHT22;50807;52.436;13.346;2023-02-08T03:44:57;2.20;67.80
15844;DHT22;50807;52.436;13.346;2023-02-08T03:45:33;2.20;67.80
15844;DHT22;50807;52.436;13.346;2023-02-08T03:46:13;2.20;67.80
15844;DHT22;50807;52.436;13.346;2023-02-08T03:46:53;2.20;67.90
15844;DHT22;50807;52.436;13.346;2023-02-08T03:47:29;2.20;67.80
15844;DHT22;50807;52.436;13.346;2023-02-08T03:48:07;2.20;67.90
15844;DHT22;50807;52.436;13.346;2023-02-08T03:48:44;2.20;67.90
15844;DHT22;50807;52.436;13.346;2023-02-08T03:49:21;2.20;67.90
15844;DHT22;50807;52.436;13.346;2023-02-08T03:49:59;2.20;67.90
15844;DHT22;50807;52.436;13.346;2023-02-08T03:50:36;2.20;67.90
15844;DHT22;50807;52.436;13.346;2023-02-08T03:51:09;2.20;67.90
15844;DHT22;50807;52.436;13.346;2023-02-08T03:51:42;2.20;67.90
15844;DHT22;50807;52.436;13.346;2023-02-08T03:52:14;2.20;68.00